sensor_id;sensor_type;location;lat;lon;timestamp;P1;durP1;ratioP1;P2;durP2;ratioP2
31298;SDS011;17927;52.350;13.402;2024-01-30T00:01:36;16.80;;;8.75;;
31298;SDS011;17927;52.350;13.402;2024-01-30T00:04:01;17.85;;;8.27;;
31298;SDS011;17927;52.350;13.402;2024-01-30T00:06:27;16.08;;;8.52;;
31298;SDS011;17927;52.350;13.402;2024-01-30T00:08:52;17.13;;;8.88;;
31298;SDS011;17927;52.350;13.402;2024-01-30T00:11:18;17.17;;;8.98;;
31298;SDS011;17927;52.350;13.402;2024-01-30T00:13:43;19.95;;;9.20;;
31298;SDS011;17927;52.350;13.402;2024-01-30T00:16:08;17.55;;;9.02;;
31298;SDS011;17927;52.350;13.402;2024-01-30T00:18:45;16.98;;;9.27;;
31298;SDS011;17927;52.350;13.402;2024-01-30T00:21:10;16.92;;;9.23;;
31298;SDS011;17927;52.350;13.402;2024-01-30T00:23:36;15.63;;;8.57;;
31298;SDS011;17927;52.350;13.402;2024-01-30T00:26:01;16.55;;;9.18;;
31298;SDS011;17927;52.350;13.402;2024-01-30T00:28:26;17.88;;;9.48;;
31298;SDS011;17927;52.350;13.402;2024-01-30T00:30:51;14.20;;;8.27;;
31298;SDS011;17927;52.350;13.402;2024-01-30T00:33:17;15.20;;;8.40;;
31298;SDS011;17927;52.350;13.402;2024-01-30T00:35:42;19.75;;;9.27;;
31298;SDS011;17927;52.350;13.402;2024-01-30T00:38:07;14.63;;;8.38;;
31298;SDS011;17927;52.350;13.402;2024-01-30T00:40:32;18.02;;;8.75;;
31298;SDS011;17927;52.350;13.402;2024-01-30T00:42:58;16.88;;;8.02;;
31298;SDS011;17927;52.350;13.402;2024-01-30T00:45:23;16.05;;;8.23;;
31298;SDS011;17927;52.350;13.402;2024-01-30T00:47:48;14.68;;;8.18;;
31298;SDS011;17927;52.350;13.402;2024-01-30T00:50:14;13.27;;;7.82;;
31298;SDS011;17927;52.350;13.402;2024-01-30T00:52:39;13.88;;;8.10;;
31298;SDS011;17927;52.350;13.402;2024-01-30T00:55:06;18.60;;;8.63;;
31298;SDS011;17927;52.350;13.402;2024-01-30T00:57:31;14.13;;;7.28;;
31298;SDS011;17927;52.350;13.402;2024-01-30T00:59:57;17.77;;;8.75;;
31298;SDS011;17927;52.350;13.402;2024-01-30T01:02:22;14.07;;;7.55;;
31298;SDS011;17927;52.350;13.402;2024-01-30T01:04:47;18.30;;;13.10;;
31298;SDS011;17927;52.350;13.402;2024-01-30T01:07:12;14.27;;;9.38;;
31298;SDS011;17927;52.350;13.402;2024-01-30T01:09:38;13.40;;;7.15;;
31298;SDS011;17927;52.350;13.402;2024-01-30T01:12:03;21.08;;;8.68;;
31298;SDS011;17927;52.350;13.402;2024-01-30T01:14:29;14.40;;;7.65;;
31298;SDS011;17927;52.350;13.402;2024-01-30T01:16:54;14.18;;;7.45;;
31298;SDS011;17927;52.350;13.402;2024-01-30T01:19:20;16.33;;;7.97;;
31298;SDS011;17927;52.350;13.402;2024-01-30T01:21:45;13.75;;;7.20;;
31298;SDS011;17927;52.350;13.402;2024-01-30T01:24:10;13.27;;;8.13;;
31298;SDS011;17927;52.350;13.402;2024-01-30T01:26:35;9.75;;;6.85;;
31298;SDS011;17927;52.350;13.402;2024-01-30T01:29:01;15.18;;;7.63;;
31298;SDS011;17927;52.350;13.402;2024-01-30T01:31:26;14.13;;;7.40;;
31298;SDS011;17927;52.350;13.402;2024-01-30T01:33:54;16.27;;;7.63;;
31298;SDS011;17927;52.350;13.402;2024-01-30T01:36:19;9.80;;;6.68;;
31298;SDS011;17927;52.350;13.402;2024-01-30T01:38:54;13.88;;;7.72;;
31298;SDS011;17927;52.350;13.402;2024-01-30T01:41:19;14.18;;;7.32;;
31298;SDS011;17927;52.350;13.402;2024-01-30T01:43:44;13.60;;;7.20;;
31298;SDS011;17927;52.350;13.402;2024-01-30T01:46:10;15.05;;;7.22;;
31298;SDS011;17927;52.350;13.402;2024-01-30T01:48:36;12.57;;;6.63;;
31298;SDS011;17927;52.350;13.402;2024-01-30T01:51:02;12.35;;;6.57;;
31298;SDS011;17927;52.350;13.402;2024-01-30T01:53:27;12.27;;;7.03;;
31298;SDS011;17927;52.350;13.402;2024-01-30T01:55:53;13.80;;;7.55;;
31298;SDS011;17927;52.350;13.402;2024-01-30T01:58:19;11.45;;;7.22;;
31298;SDS011;17927;52.350;13.402;2024-01-30T02:00:47;11.02;;;6.43;;
31298;SDS011;17927;52.350;13.402;2024-01-30T02:03:12;11.57;;;6.63;;
31298;SDS011;17927;52.350;13.402;2024-01-30T02:05:39;9.07;;;6.80;;
31298;SDS011;17927;52.350;13.402;2024-01-30T02:08:06;12.43;;;7.55;;
31298;SDS011;17927;52.350;13.402;2024-01-30T02:10:31;11.05;;;6.78;;
31298;SDS011;17927;52.350;13.402;2024-01-30T02:12:57;15.10;;;7.35;;
31298;SDS011;17927;52.350;13.402;2024-01-30T02:15:22;12.45;;;7.25;;
31298;SDS011;17927;52.350;13.402;2024-01-30T02:17:47;11.88;;;6.22;;
31298;SDS011;17927;52.350;13.402;2024-01-30T02:20:13;10.15;;;7.03;;
31298;SDS011;17927;52.350;13.402;2024-01-30T02:22:38;13.30;;;6.25;;
31298;SDS011;17927;52.350;13.402;2024-01-30T02:25:05;12.88;;;6.15;;
31298;SDS011;17927;52.350;13.402;2024-01-30T02:27:31;11.35;;;7.20;;
31298;SDS011;17927;52.350;13.402;2024-01-30T02:29:56;7.93;;;6.28;;
31298;SDS011;17927;52.350;13.402;2024-01-30T02:32:21;12.80;;;6.75;;
31298;SDS011;17927;52.350;13.402;2024-01-30T02:34:46;11.07;;;7.15;;
31298;SDS011;17927;52.350;13.402;2024-01-30T02:37:12;11.23;;;6.90;;
31298;SDS011;17927;52.350;13.402;2024-01-30T02:39:37;11.35;;;7.07;;
31298;SDS011;17927;52.350;13.402;2024-01-30T02:42:02;12.73;;;6.50;;
31298;SDS011;17927;52.350;13.402;2024-01-30T02:44:27;8.82;;;6.50;;
31298;SDS011;17927;52.350;13.402;2024-01-30T02:46:53;10.60;;;6.63;;
31298;SDS011;17927;52.350;13.402;2024-01-30T02:49:19;10.95;;;6.90;;
31298;SDS011;17927;52.350;13.402;2024-01-30T02:51:44;12.55;;;7.03;;
31298;SDS011;17927;52.350;13.402;2024-01-30T02:54:10;12.07;;;6.45;;
31298;SDS011;17927;52.350;13.402;2024-01-30T02:56:35;10.13;;;6.90;;
31298;SDS011;17927;52.350;13.402;2024-01-30T02:59:00;10.68;;;7.13;;
31298;SDS011;17927;52.350;13.402;2024-01-30T03:01:25;10.73;;;6.43;;
31298;SDS011;17927;52.350;13.402;2024-01-30T03:03:50;9.48;;;6.70;;
31298;SDS011;17927;52.350;13.402;2024-01-30T03:06:16;15.95;;;7.15;;
31298;SDS011;17927;52.350;13.402;2024-01-30T03:08:42;8.63;;;6.63;;
31298;SDS011;17927;52.350;13.402;2024-01-30T03:11:08;12.93;;;7.40;;
31298;SDS011;17927;52.350;13.402;2024-01-30T03:13:33;11.25;;;6.80;;
31298;SDS011;17927;52.350;13.402;2024-01-30T03:15:58;9.93;;;6.57;;
31298;SDS011;17927;52.350;13.402;2024-01-30T03:18:23;9.95;;;6.82;;
31298;SDS011;17927;52.350;13.402;2024-01-30T03:20:49;8.95;;;6.25;;
31298;SDS011;17927;52.350;13.402;2024-01-30T03:23:14;10.98;;;6.35;;
31298;SDS011;17927;52.350;13.402;2024-01-30T03:25:39;13.32;;;6.00;;
31298;SDS011;17927;52.350;13.402;2024-01-30T03:28:04;12.05;;;6.80;;
31298;SDS011;17927;52.350;13.402;2024-01-30T03:30:30;10.68;;;6.78;;
31298;SDS011;17927;52.350;13.402;2024-01-30T03:32:55;15.73;;;7.10;;
31298;SDS011;17927;52.350;13.402;2024-01-30T03:35:20;12.07;;;6.93;;
31298;SDS011;17927;52.350;13.402;2024-01-30T03:37:45;10.77;;;6.82;;
31298;SDS011;17927;52.350;13.402;2024-01-30T03:40:11;12.48;;;6.38;;
31298;SDS011;17927;52.350;13.402;2024-01-30T03:42:36;12.98;;;7.40;;
31298;SDS011;17927;52.350;13.402;2024-01-30T03:45:02;11.18;;;6.85;;
31298;SDS011;17927;52.350;13.402;2024-01-30T03:47:27;10.63;;;6.45;;
31298;SDS011;17927;52.350;13.402;2024-01-30T03:49:52;8.98;;;7.10;;
31298;SDS011;17927;52.350;13.402;2024-01-30T03:52:17;12.15;;;7.55;;
31298;SDS011;17927;52.350;13.402;2024-01-30T03:54:43;10.45;;;6.25;;
31298;SDS011;17927;52.350;13.402;2024-01-30T03:57:08;14.18;;;7.40;;
31298;SDS011;17927;52.350;13.402;2024-01-30T03:59:33;12.00;;;7.13;;
31298;SDS011;17927;52.350;13.402;2024-01-30T04:01:59;10.38;;;6.57;;
31298;SDS011;17927;52.350;13.402;2024-01-30T04:04:24;10.93;;;6.90;;
31298;SDS011;17927;52.350;13.402;2024-01-30T04:06:50;8.95;;;6.07;;
31298;SDS011;17927;52.350;13.402;2024-01-30T04:09:15;11.88;;;7.18;;
31298;SDS011;17927;52.350;13.402;2024-01-30T04:11:40;10.25;;;6.78;;
31298;SDS011;17927;52.350;13.402;2024-01-30T04:14:07;10.38;;;6.78;;
31298;SDS011;17927;52.350;13.402;2024-01-30T04:16:32;9.68;;;6.65;;
31298;SDS011;17927;52.350;13.402;2024-01-30T04:18:57;9.85;;;6.35;;
31298;SDS011;17927;52.350;13.402;2024-01-30T04:21:23;8.00;;;6.05;;
31298;SDS011;17927;52.350;13.402;2024-01-30T04:23:48;12.25;;;6.68;;
31298;SDS011;17927;52.350;13.402;2024-01-30T04:26:14;10.43;;;6.25;;
31298;SDS011;17927;52.350;13.402;2024-01-30T04:28:41;12.70;;;6.18;;
31298;SDS011;17927;52.350;13.402;2024-01-30T04:31:07;10.35;;;6.43;;
31298;SDS011;17927;52.350;13.402;2024-01-30T04:33:32;12.25;;;7.38;;
31298;SDS011;17927;52.350;13.402;2024-01-30T04:35:57;8.57;;;6.10;;
31298;SDS011;17927;52.350;13.402;2024-01-30T04:38:22;9.60;;;6.43;;
31298;SDS011;17927;52.350;13.402;2024-01-30T04:40:48;9.32;;;5.88;;
31298;SDS011;17927;52.350;13.402;2024-01-30T04:43:13;10.30;;;6.47;;
31298;SDS011;17927;52.350;13.402;2024-01-30T04:45:39;12.25;;;6.40;;
31298;SDS011;17927;52.350;13.402;2024-01-30T04:48:04;10.15;;;7.10;;
31298;SDS011;17927;52.350;13.402;2024-01-30T04:50:30;9.98;;;6.50;;
31298;SDS011;17927;52.350;13.402;2024-01-30T04:52:55;11.15;;;7.07;;
31298;SDS011;17927;52.350;13.402;2024-01-30T04:55:20;9.95;;;7.38;;
31298;SDS011;17927;52.350;13.402;2024-01-30T04:57:46;10.88;;;6.60;;
31298;SDS011;17927;52.350;13.402;2024-01-30T05:00:11;14.15;;;6.85;;
31298;SDS011;17927;52.350;13.402;2024-01-30T05:02:37;10.48;;;6.57;;
31298;SDS011;17927;52.350;13.402;2024-01-30T05:05:02;10.38;;;6.32;;
31298;SDS011;17927;52.350;13.402;2024-01-30T05:07:28;12.27;;;7.28;;
31298;SDS011;17927;52.350;13.402;2024-01-30T05:09:53;11.55;;;6.85;;
31298;SDS011;17927;52.350;13.402;2024-01-30T05:12:19;10.77;;;6.88;;
31298;SDS011;17927;52.350;13.402;2024-01-30T05:14:44;7.30;;;5.97;;
31298;SDS011;17927;52.350;13.402;2024-01-30T05:17:09;11.50;;;6.72;;
31298;SDS011;17927;52.350;13.402;2024-01-30T05:19:37;13.68;;;6.28;;
31298;SDS011;17927;52.350;13.402;2024-01-30T05:22:02;10.73;;;7.00;;
31298;SDS011;17927;52.350;13.402;2024-01-30T05:24:28;11.45;;;6.55;;
31298;SDS011;17927;52.350;13.402;2024-01-30T05:26:53;14.15;;;6.28;;
31298;SDS011;17927;52.350;13.402;2024-01-30T05:29:18;10.23;;;6.72;;
31298;SDS011;17927;52.350;13.402;2024-01-30T05:31:44;8.73;;;6.82;;
31298;SDS011;17927;52.350;13.402;2024-01-30T05:34:10;12.82;;;7.68;;
31298;SDS011;17927;52.350;13.402;2024-01-30T05:36:35;11.05;;;7.30;;
31298;SDS011;17927;52.350;13.402;2024-01-30T05:39:00;15.45;;;7.03;;
31298;SDS011;17927;52.350;13.402;2024-01-30T05:41:26;11.40;;;7.72;;
31298;SDS011;17927;52.350;13.402;2024-01-30T05:43:51;14.85;;;7.30;;
31298;SDS011;17927;52.350;13.402;2024-01-30T05:46:16;10.45;;;7.20;;
31298;SDS011;17927;52.350;13.402;2024-01-30T05:48:41;11.98;;;7.05;;
31298;SDS011;17927;52.350;13.402;2024-01-30T05:51:07;12.63;;;7.03;;
31298;SDS011;17927;52.350;13.402;2024-01-30T05:53:33;11.73;;;7.55;;
31298;SDS011;17927;52.350;13.402;2024-01-30T05:55:59;11.57;;;6.68;;
31298;SDS011;17927;52.350;13.402;2024-01-30T05:58:26;9.57;;;6.88;;
31298;SDS011;17927;52.350;13.402;2024-01-30T06:00:51;10.82;;;6.80;;
31298;SDS011;17927;52.350;13.402;2024-01-30T06:03:17;10.63;;;6.43;;
31298;SDS011;17927;52.350;13.402;2024-01-30T06:05:42;16.45;;;7.20;;
31298;SDS011;17927;52.350;13.402;2024-01-30T06:08:07;12.70;;;7.22;;
31298;SDS011;17927;52.350;13.402;2024-01-30T06:10:32;9.93;;;6.72;;
31298;SDS011;17927;52.350;13.402;2024-01-30T06:12:57;12.27;;;7.20;;
31298;SDS011;17927;52.350;13.402;2024-01-30T06:15:23;8.68;;;6.40;;
31298;SDS011;17927;52.350;13.402;2024-01-30T06:17:48;11.27;;;6.70;;
31298;SDS011;17927;52.350;13.402;2024-01-30T06:20:13;14.82;;;7.35;;
31298;SDS011;17927;52.350;13.402;2024-01-30T06:22:39;11.32;;;7.10;;
31298;SDS011;17927;52.350;13.402;2024-01-30T06:25:04;13.50;;;6.72;;
31298;SDS011;17927;52.350;13.402;2024-01-30T06:27:29;12.23;;;6.88;;
31298;SDS011;17927;52.350;13.402;2024-01-30T06:29:54;11.55;;;6.50;;
31298;SDS011;17927;52.350;13.402;2024-01-30T06:32:20;12.65;;;6.53;;
31298;SDS011;17927;52.350;13.402;2024-01-30T06:34:45;14.80;;;6.85;;
31298;SDS011;17927;52.350;13.402;2024-01-30T06:37:10;13.25;;;7.00;;
31298;SDS011;17927;52.350;13.402;2024-01-30T06:39:35;14.70;;;8.00;;
31298;SDS011;17927;52.350;13.402;2024-01-30T06:42:01;13.35;;;7.38;;
31298;SDS011;17927;52.350;13.402;2024-01-30T06:44:26;8.23;;;6.35;;
31298;SDS011;17927;52.350;13.402;2024-01-30T06:46:52;15.57;;;7.32;;
31298;SDS011;17927;52.350;13.402;2024-01-30T06:49:17;13.52;;;6.57;;
31298;SDS011;17927;52.350;13.402;2024-01-30T06:51:42;9.93;;;7.28;;
31298;SDS011;17927;52.350;13.402;2024-01-30T06:54:07;14.93;;;6.82;;
31298;SDS011;17927;52.350;13.402;2024-01-30T06:56:33;11.63;;;6.55;;
31298;SDS011;17927;52.350;13.402;2024-01-30T06:58:59;11.10;;;6.75;;
31298;SDS011;17927;52.350;13.402;2024-01-30T07:01:28;15.07;;;6.43;;
31298;SDS011;17927;52.350;13.402;2024-01-30T07:03:54;11.27;;;6.60;;
31298;SDS011;17927;52.350;13.402;2024-01-30T07:06:19;11.20;;;7.65;;
31298;SDS011;17927;52.350;13.402;2024-01-30T07:08:45;11.60;;;6.15;;
31298;SDS011;17927;52.350;13.402;2024-01-30T07:11:10;11.00;;;6.80;;
31298;SDS011;17927;52.350;13.402;2024-01-30T07:13:37;15.80;;;7.70;;
31298;SDS011;17927;52.350;13.402;2024-01-30T07:16:02;16.55;;;7.93;;
31298;SDS011;17927;52.350;13.402;2024-01-30T07:18:28;11.55;;;7.72;;
31298;SDS011;17927;52.350;13.402;2024-01-30T07:20:53;16.88;;;8.07;;
31298;SDS011;17927;52.350;13.402;2024-01-30T07:23:18;11.93;;;7.35;;
31298;SDS011;17927;52.350;13.402;2024-01-30T07:25:44;17.75;;;8.52;;
31298;SDS011;17927;52.350;13.402;2024-01-30T07:28:09;12.55;;;9.02;;
31298;SDS011;17927;52.350;13.402;2024-01-30T07:30:35;16.10;;;7.85;;
31298;SDS011;17927;52.350;13.402;2024-01-30T07:33:01;13.95;;;7.82;;
31298;SDS011;17927;52.350;13.402;2024-01-30T07:35:26;15.23;;;7.47;;
31298;SDS011;17927;52.350;13.402;2024-01-30T07:37:52;14.43;;;8.07;;
31298;SDS011;17927;52.350;13.402;2024-01-30T07:40:17;14.48;;;7.50;;
31298;SDS011;17927;52.350;13.402;2024-01-30T07:42:42;10.73;;;6.78;;
31298;SDS011;17927;52.350;13.402;2024-01-30T07:45:08;12.63;;;7.25;;
31298;SDS011;17927;52.350;13.402;2024-01-30T07:47:33;14.55;;;8.40;;
31298;SDS011;17927;52.350;13.402;2024-01-30T07:49:59;9.93;;;6.95;;
31298;SDS011;17927;52.350;13.402;2024-01-30T07:52:24;11.63;;;7.00;;
31298;SDS011;17927;52.350;13.402;2024-01-30T07:54:49;7.72;;;6.13;;
31298;SDS011;17927;52.350;13.402;2024-01-30T07:57:15;13.25;;;7.53;;
31298;SDS011;17927;52.350;13.402;2024-01-30T07:59:42;14.00;;;7.30;;
31298;SDS011;17927;52.350;13.402;2024-01-30T08:02:09;7.85;;;6.78;;
31298;SDS011;17927;52.350;13.402;2024-01-30T08:04:34;17.35;;;6.68;;
31298;SDS011;17927;52.350;13.402;2024-01-30T08:06:59;10.80;;;6.15;;
31298;SDS011;17927;52.350;13.402;2024-01-30T08:09:24;12.10;;;7.88;;
31298;SDS011;17927;52.350;13.402;2024-01-30T08:11:49;11.82;;;7.32;;
31298;SDS011;17927;52.350;13.402;2024-01-30T08:14:15;17.27;;;6.90;;
31298;SDS011;17927;52.350;13.402;2024-01-30T08:16:40;15.27;;;7.18;;
31298;SDS011;17927;52.350;13.402;2024-01-30T08:19:05;12.65;;;8.10;;
31298;SDS011;17927;52.350;13.402;2024-01-30T08:21:30;12.85;;;7.05;;
31298;SDS011;17927;52.350;13.402;2024-01-30T08:24:01;14.48;;;7.70;;
31298;SDS011;17927;52.350;13.402;2024-01-30T08:26:26;12.32;;;7.40;;
31298;SDS011;17927;52.350;13.402;2024-01-30T08:28:51;10.95;;;7.13;;
31298;SDS011;17927;52.350;13.402;2024-01-30T08:31:18;11.75;;;7.55;;
31298;SDS011;17927;52.350;13.402;2024-01-30T08:33:43;10.25;;;7.32;;
31298;SDS011;17927;52.350;13.402;2024-01-30T08:36:09;12.25;;;7.22;;
31298;SDS011;17927;52.350;13.402;2024-01-30T08:38:34;10.80;;;7.15;;
31298;SDS011;17927;52.350;13.402;2024-01-30T08:40:59;11.68;;;7.10;;
31298;SDS011;17927;52.350;13.402;2024-01-30T08:43:24;13.20;;;7.22;;
31298;SDS011;17927;52.350;13.402;2024-01-30T08:45:49;9.57;;;6.82;;
31298;SDS011;17927;52.350;13.402;2024-01-30T08:48:15;14.95;;;7.55;;
31298;SDS011;17927;52.350;13.402;2024-01-30T08:50:40;13.43;;;8.07;;
31298;SDS011;17927;52.350;13.402;2024-01-30T08:53:05;12.00;;;7.55;;
31298;SDS011;17927;52.350;13.402;2024-01-30T08:55:31;12.40;;;7.63;;
31298;SDS011;17927;52.350;13.402;2024-01-30T08:57:56;11.13;;;7.18;;
31298;SDS011;17927;52.350;13.402;2024-01-30T09:00:21;14.07;;;6.85;;
31298;SDS011;17927;52.350;13.402;2024-01-30T09:02:47;15.85;;;6.60;;
31298;SDS011;17927;52.350;13.402;2024-01-30T09:05:12;12.32;;;6.80;;
31298;SDS011;17927;52.350;13.402;2024-01-30T09:07:37;12.23;;;5.82;;
31298;SDS011;17927;52.350;13.402;2024-01-30T09:10:03;8.23;;;5.93;;
31298;SDS011;17927;52.350;13.402;2024-01-30T09:12:28;11.63;;;6.57;;
31298;SDS011;17927;52.350;13.402;2024-01-30T09:14:54;8.82;;;6.18;;
31298;SDS011;17927;52.350;13.402;2024-01-30T09:17:19;11.05;;;5.82;;
31298;SDS011;17927;52.350;13.402;2024-01-30T09:19:45;8.68;;;5.82;;
31298;SDS011;17927;52.350;13.402;2024-01-30T09:22:11;8.88;;;5.97;;
31298;SDS011;17927;52.350;13.402;2024-01-30T09:24:36;9.32;;;6.32;;
31298;SDS011;17927;52.350;13.402;2024-01-30T09:27:01;7.00;;;5.60;;
31298;SDS011;17927;52.350;13.402;2024-01-30T09:29:26;11.48;;;6.13;;
31298;SDS011;17927;52.350;13.402;2024-01-30T09:31:52;10.05;;;5.45;;
31298;SDS011;17927;52.350;13.402;2024-01-30T09:34:17;9.02;;;6.18;;
31298;SDS011;17927;52.350;13.402;2024-01-30T09:36:42;7.95;;;5.30;;
31298;SDS011;17927;52.350;13.402;2024-01-30T09:39:07;6.72;;;5.25;;
31298;SDS011;17927;52.350;13.402;2024-01-30T09:41:34;11.02;;;5.95;;
31298;SDS011;17927;52.350;13.402;2024-01-30T09:44:09;7.38;;;5.18;;
31298;SDS011;17927;52.350;13.402;2024-01-30T09:46:36;9.32;;;6.10;;
31298;SDS011;17927;52.350;13.402;2024-01-30T09:49:02;8.13;;;5.40;;
31298;SDS011;17927;52.350;13.402;2024-01-30T09:51:28;12.65;;;5.35;;
31298;SDS011;17927;52.350;13.402;2024-01-30T09:53:54;7.07;;;5.55;;
31298;SDS011;17927;52.350;13.402;2024-01-30T09:56:21;12.10;;;5.82;;
31298;SDS011;17927;52.350;13.402;2024-01-30T09:58:46;9.57;;;6.05;;
31298;SDS011;17927;52.350;13.402;2024-01-30T10:01:13;8.38;;;5.25;;
31298;SDS011;17927;52.350;13.402;2024-01-30T10:03:43;9.23;;;5.87;;
31298;SDS011;17927;52.350;13.402;2024-01-30T10:06:08;6.10;;;5.13;;
31298;SDS011;17927;52.350;13.402;2024-01-30T10:08:35;8.40;;;5.25;;
31298;SDS011;17927;52.350;13.402;2024-01-30T10:11:00;6.78;;;4.97;;
31298;SDS011;17927;52.350;13.402;2024-01-30T10:13:26;8.82;;;5.18;;
31298;SDS011;17927;52.350;13.402;2024-01-30T10:15:52;8.80;;;5.35;;
31298;SDS011;17927;52.350;13.402;2024-01-30T10:18:17;6.20;;;5.03;;
31298;SDS011;17927;52.350;13.402;2024-01-30T10:20:43;7.03;;;4.78;;
31298;SDS011;17927;52.350;13.402;2024-01-30T10:23:08;6.03;;;5.05;;
31298;SDS011;17927;52.350;13.402;2024-01-30T10:25:33;7.97;;;5.25;;
31298;SDS011;17927;52.350;13.402;2024-01-30T10:27:59;6.07;;;4.82;;
31298;SDS011;17927;52.350;13.402;2024-01-30T10:30:24;9.45;;;4.88;;
31298;SDS011;17927;52.350;13.402;2024-01-30T10:32:50;6.10;;;4.97;;
31298;SDS011;17927;52.350;13.402;2024-01-30T10:35:16;7.78;;;5.10;;
31298;SDS011;17927;52.350;13.402;2024-01-30T10:37:43;6.63;;;4.70;;
31298;SDS011;17927;52.350;13.402;2024-01-30T10:40:09;7.82;;;4.93;;
31298;SDS011;17927;52.350;13.402;2024-01-30T10:42:38;6.30;;;4.50;;
31298;SDS011;17927;52.350;13.402;2024-01-30T10:45:11;7.70;;;4.68;;
31298;SDS011;17927;52.350;13.402;2024-01-30T10:47:39;7.18;;;5.03;;
31298;SDS011;17927;52.350;13.402;2024-01-30T10:50:05;4.90;;;4.40;;
31298;SDS011;17927;52.350;13.402;2024-01-30T10:52:33;9.77;;;5.10;;
31298;SDS011;17927;52.350;13.402;2024-01-30T10:54:58;8.35;;;5.07;;
31298;SDS011;17927;52.350;13.402;2024-01-30T10:57:24;9.05;;;5.38;;
31298;SDS011;17927;52.350;13.402;2024-01-30T10:59:52;6.05;;;4.68;;
31298;SDS011;17927;52.350;13.402;2024-01-30T11:02:20;7.45;;;5.20;;
31298;SDS011;17927;52.350;13.402;2024-01-30T11:04:46;8.60;;;5.40;;
31298;SDS011;17927;52.350;13.402;2024-01-30T11:07:16;5.05;;;4.53;;
31298;SDS011;17927;52.350;13.402;2024-01-30T11:09:53;5.75;;;5.10;;
31298;SDS011;17927;52.350;13.402;2024-01-30T11:12:22;6.85;;;5.00;;
31298;SDS011;17927;52.350;13.402;2024-01-30T11:14:49;9.05;;;5.05;;
31298;SDS011;17927;52.350;13.402;2024-01-30T11:17:15;10.27;;;5.70;;
31298;SDS011;17927;52.350;13.402;2024-01-30T11:19:41;6.88;;;5.75;;
31298;SDS011;17927;52.350;13.402;2024-01-30T11:22:07;10.93;;;5.43;;
31298;SDS011;17927;52.350;13.402;2024-01-30T11:24:39;8.02;;;5.72;;
31298;SDS011;17927;52.350;13.402;2024-01-30T11:27:10;7.60;;;5.15;;
31298;SDS011;17927;52.350;13.402;2024-01-30T11:29:35;8.60;;;6.30;;
31298;SDS011;17927;52.350;13.402;2024-01-30T11:32:01;10.88;;;5.90;;
31298;SDS011;17927;52.350;13.402;2024-01-30T11:34:27;11.43;;;6.60;;
31298;SDS011;17927;52.350;13.402;2024-01-30T11:36:56;9.25;;;6.68;;
31298;SDS011;17927;52.350;13.402;2024-01-30T11:39:26;9.05;;;5.95;;
31298;SDS011;17927;52.350;13.402;2024-01-30T11:41:51;11.20;;;6.75;;
31298;SDS011;17927;52.350;13.402;2024-01-30T11:44:18;9.57;;;6.50;;
31298;SDS011;17927;52.350;13.402;2024-01-30T11:46:45;8.02;;;6.32;;
31298;SDS011;17927;52.350;13.402;2024-01-30T11:49:11;10.50;;;7.07;;
31298;SDS011;17927;52.350;13.402;2024-01-30T11:51:37;10.52;;;6.32;;
31298;SDS011;17927;52.350;13.402;2024-01-30T11:54:02;6.25;;;5.60;;
31298;SDS011;17927;52.350;13.402;2024-01-30T11:56:28;6.28;;;5.60;;
31298;SDS011;17927;52.350;13.402;2024-01-30T11:58:53;7.68;;;5.78;;
31298;SDS011;17927;52.350;13.402;2024-01-30T12:01:18;9.65;;;6.18;;
31298;SDS011;17927;52.350;13.402;2024-01-30T12:03:50;9.68;;;6.72;;
31298;SDS011;17927;52.350;13.402;2024-01-30T12:06:16;8.48;;;5.57;;
31298;SDS011;17927;52.350;13.402;2024-01-30T12:08:41;9.90;;;6.63;;
31298;SDS011;17927;52.350;13.402;2024-01-30T12:11:07;9.68;;;6.63;;
31298;SDS011;17927;52.350;13.402;2024-01-30T12:13:32;10.40;;;6.53;;
31298;SDS011;17927;52.350;13.402;2024-01-30T12:15:58;12.55;;;6.38;;
31298;SDS011;17927;52.350;13.402;2024-01-30T12:18:23;10.25;;;5.93;;
31298;SDS011;17927;52.350;13.402;2024-01-30T12:21:01;9.40;;;6.28;;
31298;SDS011;17927;52.350;13.402;2024-01-30T12:23:27;9.10;;;6.70;;
31298;SDS011;17927;52.350;13.402;2024-01-30T12:25:52;11.10;;;6.22;;
31298;SDS011;17927;52.350;13.402;2024-01-30T12:28:19;9.05;;;6.40;;
31298;SDS011;17927;52.350;13.402;2024-01-30T12:30:44;8.45;;;6.05;;
31298;SDS011;17927;52.350;13.402;2024-01-30T12:33:09;7.80;;;5.88;;
31298;SDS011;17927;52.350;13.402;2024-01-30T12:35:41;11.30;;;6.95;;
31298;SDS011;17927;52.350;13.402;2024-01-30T12:38:10;7.80;;;5.80;;
31298;SDS011;17927;52.350;13.402;2024-01-30T12:40:35;7.68;;;5.65;;
31298;SDS011;17927;52.350;13.402;2024-01-30T12:43:01;8.38;;;5.78;;
31298;SDS011;17927;52.350;13.402;2024-01-30T12:45:26;8.90;;;5.90;;
31298;SDS011;17927;52.350;13.402;2024-01-30T12:47:51;7.07;;;5.43;;
31298;SDS011;17927;52.350;13.402;2024-01-30T12:50:17;8.55;;;6.50;;
31298;SDS011;17927;52.350;13.402;2024-01-30T12:52:43;9.82;;;5.63;;
31298;SDS011;17927;52.350;13.402;2024-01-30T12:55:09;8.38;;;5.55;;
31298;SDS011;17927;52.350;13.402;2024-01-30T12:57:34;8.02;;;5.88;;
31298;SDS011;17927;52.350;13.402;2024-01-30T12:59:59;8.68;;;6.25;;
31298;SDS011;17927;52.350;13.402;2024-01-30T13:02:24;11.27;;;5.82;;
31298;SDS011;17927;52.350;13.402;2024-01-30T13:04:51;12.02;;;5.53;;
31298;SDS011;17927;52.350;13.402;2024-01-30T13:07:17;13.35;;;5.88;;
31298;SDS011;17927;52.350;13.402;2024-01-30T13:09:42;8.15;;;5.47;;
31298;SDS011;17927;52.350;13.402;2024-01-30T13:12:07;7.65;;;5.88;;
31298;SDS011;17927;52.350;13.402;2024-01-30T13:14:32;8.15;;;5.63;;
31298;SDS011;17927;52.350;13.402;2024-01-30T13:16:58;10.27;;;5.75;;
31298;SDS011;17927;52.350;13.402;2024-01-30T13:19:23;10.35;;;6.35;;
31298;SDS011;17927;52.350;13.402;2024-01-30T13:21:48;8.38;;;5.40;;
31298;SDS011;17927;52.350;13.402;2024-01-30T13:24:14;8.77;;;6.00;;
31298;SDS011;17927;52.350;13.402;2024-01-30T13:26:39;8.93;;;5.10;;
31298;SDS011;17927;52.350;13.402;2024-01-30T13:29:04;6.95;;;5.13;;
31298;SDS011;17927;52.350;13.402;2024-01-30T13:31:30;8.18;;;5.13;;
31298;SDS011;17927;52.350;13.402;2024-01-30T13:33:55;6.82;;;5.30;;
31298;SDS011;17927;52.350;13.402;2024-01-30T13:36:20;10.55;;;6.00;;
31298;SDS011;17927;52.350;13.402;2024-01-30T13:38:46;5.68;;;4.97;;
31298;SDS011;17927;52.350;13.402;2024-01-30T13:41:11;7.50;;;6.00;;
31298;SDS011;17927;52.350;13.402;2024-01-30T13:43:37;10.88;;;6.63;;
31298;SDS011;17927;52.350;13.402;2024-01-30T13:46:02;10.38;;;6.95;;
31298;SDS011;17927;52.350;13.402;2024-01-30T13:48:28;14.02;;;7.82;;
31298;SDS011;17927;52.350;13.402;2024-01-30T13:50:54;13.00;;;6.90;;
31298;SDS011;17927;52.350;13.402;2024-01-30T13:53:20;16.83;;;8.95;;
31298;SDS011;17927;52.350;13.402;2024-01-30T13:55:45;16.17;;;8.02;;
31298;SDS011;17927;52.350;13.402;2024-01-30T13:58:12;12.88;;;7.53;;
31298;SDS011;17927;52.350;13.402;2024-01-30T14:00:37;17.00;;;6.93;;
31298;SDS011;17927;52.350;13.402;2024-01-30T14:03:02;11.27;;;7.47;;
31298;SDS011;17927;52.350;13.402;2024-01-30T14:05:28;8.77;;;5.82;;
31298;SDS011;17927;52.350;13.402;2024-01-30T14:07:53;8.45;;;5.90;;
31298;SDS011;17927;52.350;13.402;2024-01-30T14:10:19;10.23;;;5.82;;
31298;SDS011;17927;52.350;13.402;2024-01-30T14:12:44;10.38;;;5.38;;
31298;SDS011;17927;52.350;13.402;2024-01-30T14:15:10;11.73;;;5.95;;
31298;SDS011;17927;52.350;13.402;2024-01-30T14:17:37;8.68;;;5.35;;